sensor_id;sensor_type;location;lat;lon;timestamp;pressure;altitude;pressure_sealevel;temperature;humidity
43701;BME280;58809;47.984;7.964;2023-02-03T00:00:08;98676.38;;;5.00;84.78
43701;BME280;58809;47.984;7.964;2023-02-03T00:03:12;98669.25;;;5.03;84.10
43701;BME280;58809;47.984;7.964;2023-02-03T00:06:14;98665.88;;;5.00;83.72
43701;BME280;58809;47.984;7.964;2023-02-03T00:09:16;98679.09;;;4.99;83.35
43701;BME280;58809;47.984;7.964;2023-02-03T00:12:17;98682.47;;;5.01;83.63
43701;BME280;58809;47.984;7.964;2023-02-03T00:15:19;98692.97;;;5.01;82.98
43701;BME280;58809;47.984;7.964;2023-02-03T00:18:23;98683.28;;;5.01;82.64
43701;BME280;58809;47.984;7.964;2023-02-03T00:21:24;98682.34;;;5.03;82.62
43701;BME280;58809;47.984;7.964;2023-02-03T00:24:27;98684.00;;;5.04;82.07
43701;BME280;58809;47.984;7.964;2023-02-03T00:27:28;98687.50;;;5.04;81.89
43701;BME280;58809;47.984;7.964;2023-02-03T00:30:35;98684.97;;;5.03;82.28
43701;BME280;58809;47.984;7.964;2023-02-03T00:33:36;98690.44;;;4.99;82.82
43701;BME280;58809;47.984;7.964;2023-02-03T00:36:39;98686.16;;;4.98;82.50
43701;BME280;58809;47.984;7.964;2023-02-03T00:39:43;98690.34;;;5.01;82.24
43701;BME280;58809;47.984;7.964;2023-02-03T00:42:44;98698.19;;;5.01;82.22
43701;BME280;58809;47.984;7.964;2023-02-03T00:45:46;98686.00;;;5.00;82.75
43701;BME280;58809;47.984;7.964;2023-02-03T00:48:48;98682.47;;;5.01;83.29
43701;BME280;58809;47.984;7.964;2023-02-03T00:51:50;98686.88;;;5.00;82.50
43701;BME280;58809;47.984;7.964;2023-02-03T00:54:52;98680.78;;;5.00;82.72
43701;BME280;58809;47.984;7.964;2023-02-03T00:57:53;98679.84;;;5.01;82.98
43701;BME280;58809;47.984;7.964;2023-02-03T01:00:55;98683.38;;;5.00;82.91
43701;BME280;58809;47.984;7.964;2023-02-03T01:03:58;98704.38;;;5.00;82.72
43701;BME280;58809;47.984;7.964;2023-02-03T01:07:00;98688.06;;;4.96;83.12
43701;BME280;58809;47.984;7.964;2023-02-03T01:10:03;98701.16;;;4.96;83.42
43701;BME280;58809;47.984;7.964;2023-02-03T01:13:06;98709.53;;;5.01;83.60
43701;BME280;58809;47.984;7.964;2023-02-03T01:16:10;98707.25;;;4.97;83.26
43701;BME280;58809;47.984;7.964;2023-02-03T01:19:12;98715.22;;;4.95;83.29
43701;BME280;58809;47.984;7.964;2023-02-03T01:22:15;98717.75;;;4.97;83.81
43701;BME280;58809;47.984;7.964;2023-02-03T01:25:16;98709.97;;;4.95;83.98
43701;BME280;58809;47.984;7.964;2023-02-03T01:28:18;98701.16;;;4.96;83.76
43701;BME280;58809;47.984;7.964;2023-02-03T01:31:22;98701.03;;;4.98;83.90
43701;BME280;58809;47.984;7.964;2023-02-03T01:34:25;98707.97;;;4.99;83.73
43701;BME280;58809;47.984;7.964;2023-02-03T01:37:26;98704.53;;;4.98;83.48
43701;BME280;58809;47.984;7.964;2023-02-03T01:40:28;98708.91;;;4.98;83.90
43701;BME280;58809;47.984;7.964;2023-02-03T01:43:38;98711.41;;;4.99;84.11
43701;BME280;58809;47.984;7.964;2023-02-03T01:46:49;98712.50;;;4.97;84.35
43701;BME280;58809;47.984;7.964;2023-02-03T01:49:59;98708.91;;;4.98;84.08
43701;BME280;58809;47.984;7.964;2023-02-03T01:53:07;98709.13;;;4.95;83.94
43701;BME280;58809;47.984;7.964;2023-02-03T01:56:11;98711.03;;;4.93;84.91
43701;BME280;58809;47.984;7.964;2023-02-03T01:59:16;98705.78;;;4.93;85.01
43701;BME280;58809;47.984;7.964;2023-02-03T02:02:20;98702.19;;;4.94;84.91
43701;BME280;58809;47.984;7.964;2023-02-03T02:05:45;98696.13;;;4.93;84.79
43701;BME280;58809;47.984;7.964;2023-02-03T02:08:50;98685.53;;;4.95;85.26
43701;BME280;58809;47.984;7.964;2023-02-03T02:11:52;98668.81;;;4.96;85.44
43701;BME280;58809;47.984;7.964;2023-02-03T02:14:54;98662.84;;;4.94;85.50
43701;BME280;58809;47.984;7.964;2023-02-03T02:18:34;98653.31;;;4.93;85.63
43701;BME280;58809;47.984;7.964;2023-02-03T02:21:50;98640.31;;;4.91;85.34
43701;BME280;58809;47.984;7.964;2023-02-03T02:25:07;98640.41;;;4.90;85.46
43701;BME280;58809;47.984;7.964;2023-02-03T02:35:12;98646.50;;;4.90;85.30
43701;BME280;58809;47.984;7.964;2023-02-03T02:41:55;98655.19;;;4.91;85.26
43701;BME280;58809;47.984;7.964;2023-02-03T02:45:08;98659.72;;;4.89;85.10
43701;BME280;58809;47.984;7.964;2023-02-03T02:48:20;98665.38;;;4.95;84.68
43701;BME280;58809;47.984;7.964;2023-02-03T02:51:27;98668.81;;;4.96;84.86
43701;BME280;58809;47.984;7.964;2023-02-03T02:54:31;98665.28;;;4.97;84.64
43701;BME280;58809;47.984;7.964;2023-02-03T02:57:35;98647.00;;;4.95;84.80
43701;BME280;58809;47.984;7.964;2023-02-03T03:00:38;98639.25;;;4.94;85.01
43701;BME280;58809;47.984;7.964;2023-02-03T03:03:42;98629.81;;;4.91;85.68
43701;BME280;58809;47.984;7.964;2023-02-03T03:06:48;98623.50;;;4.94;85.25
43701;BME280;58809;47.984;7.964;2023-02-03T03:09:55;98603.19;;;4.85;85.36
43701;BME280;58809;47.984;7.964;2023-02-03T03:13:03;98592.81;;;4.83;85.85
43701;BME280;58809;47.984;7.964;2023-02-03T03:16:08;98585.72;;;4.72;86.05
43701;BME280;58809;47.984;7.964;2023-02-03T03:19:14;98600.09;;;4.67;86.63
43701;BME280;58809;47.984;7.964;2023-02-03T03:22:20;98614.28;;;4.64;86.94
43701;BME280;58809;47.984;7.964;2023-02-03T03:25:29;98616.91;;;4.64;86.83
43701;BME280;58809;47.984;7.964;2023-02-03T03:28:40;98606.41;;;4.64;87.40
43701;BME280;58809;47.984;7.964;2023-02-03T03:31:43;98618.78;;;4.62;87.65
43701;BME280;58809;47.984;7.964;2023-02-03T03:34:46;98616.91;;;4.64;86.88
43701;BME280;58809;47.984;7.964;2023-02-03T03:45:23;98620.66;;;4.73;86.72
43701;BME280;58809;47.984;7.964;2023-02-03T03:48:53;98611.94;;;4.72;86.69
43701;BME280;58809;47.984;7.964;2023-02-03T03:52:00;98611.00;;;4.73;86.31
43701;BME280;58809;47.984;7.964;2023-02-03T03:55:07;98611.31;;;4.69;86.25
43701;BME280;58809;47.984;7.964;2023-02-03T03:58:18;98624.66;;;4.66;86.53
43701;BME280;58809;47.984;7.964;2023-02-03T04:01:22;98619.00;;;4.59;87.10
43701;BME280;58809;47.984;7.964;2023-02-03T04:04:24;98614.72;;;4.58;86.74
43701;BME280;58809;47.984;7.964;2023-02-03T04:07:56;98616.38;;;4.59;88.02
43701;BME280;58809;47.984;7.964;2023-02-03T04:10:57;98609.34;;;4.59;87.55
43701;BME280;58809;47.984;7.964;2023-02-03T04:13:59;98604.97;;;4.60;88.18
43701;BME280;58809;47.984;7.964;2023-02-03T04:17:00;98608.72;;;4.56;87.56
43701;BME280;58809;47.984;7.964;2023-02-03T04:20:03;98581.78;;;4.54;88.87
43701;BME280;58809;47.984;7.964;2023-02-03T04:23:05;98613.56;;;4.49;88.96
43701;BME280;58809;47.984;7.964;2023-02-03T04:26:06;98616.28;;;4.48;89.02
43701;BME280;58809;47.984;7.964;2023-02-03T04:29:08;98628.88;;;4.42;89.41
43701;BME280;58809;47.984;7.964;2023-02-03T04:32:09;98641.53;;;4.49;90.33
43701;BME280;58809;47.984;7.964;2023-02-03T04:35:11;98653.63;;;4.51;90.00
43701;BME280;58809;47.984;7.964;2023-02-03T04:38:13;98655.81;;;4.57;90.03
43701;BME280;58809;47.984;7.964;2023-02-03T04:41:15;98662.41;;;4.63;89.29
43701;BME280;58809;47.984;7.964;2023-02-03T04:44:16;98653.41;;;4.67;89.40
43701;BME280;58809;47.984;7.964;2023-02-03T04:47:18;98662.72;;;4.71;88.86
43701;BME280;58809;47.984;7.964;2023-02-03T04:50:20;98650.53;;;4.70;88.97
43701;BME280;58809;47.984;7.964;2023-02-03T04:53:22;98660.09;;;4.71;88.90
43701;BME280;58809;47.984;7.964;2023-02-03T04:56:23;98666.88;;;4.74;89.00
43701;BME280;58809;47.984;7.964;2023-02-03T04:59:25;98649.78;;;4.81;88.76
43701;BME280;58809;47.984;7.964;2023-02-03T05:02:26;98640.53;;;4.88;87.81
43701;BME280;58809;47.984;7.964;2023-02-03T05:05:28;98636.97;;;4.89;87.69
43701;BME280;58809;47.984;7.964;2023-02-03T05:08:29;98631.94;;;4.86;87.54
43701;BME280;58809;47.984;7.964;2023-02-03T05:11:31;98620.38;;;4.89;86.93
43701;BME280;58809;47.984;7.964;2023-02-03T05:14:32;98630.75;;;4.90;87.62
43701;BME280;58809;47.984;7.964;2023-02-03T05:17:34;98635.19;;;4.90;87.46
43701;BME280;58809;47.984;7.964;2023-02-03T05:20:39;98623.00;;;4.89;87.94
43701;BME280;58809;47.984;7.964;2023-02-03T05:23:40;98635.19;;;4.90;87.69
43701;BME280;58809;47.984;7.964;2023-02-03T05:26:42;98627.75;;;4.84;88.24
43701;BME280;58809;47.984;7.964;2023-02-03T05:29:43;98617.28;;;4.84;88.32
43701;BME280;58809;47.984;7.964;2023-02-03T05:32:45;98604.25;;;4.82;88.39
43701;BME280;58809;47.984;7.964;2023-02-03T05:35:46;98607.91;;;4.79;89.17
43701;BME280;58809;47.984;7.964;2023-02-03T05:38:48;98598.16;;;4.81;89.10
43701;BME280;58809;47.984;7.964;2023-02-03T05:41:49;98599.00;;;4.82;89.37
43701;BME280;58809;47.984;7.964;2023-02-03T05:44:54;98601.53;;;4.84;89.35
43701;BME280;58809;47.984;7.964;2023-02-03T05:47:56;98597.22;;;4.82;89.67
43701;BME280;58809;47.984;7.964;2023-02-03T05:50:58;98601.53;;;4.84;89.84
43701;BME280;58809;47.984;7.964;2023-02-03T05:53:59;98610.34;;;4.82;90.07
43701;BME280;58809;47.984;7.964;2023-02-03T05:57:01;98611.25;;;4.81;89.39
43701;BME280;58809;47.984;7.964;2023-02-03T06:00:03;98611.78;;;4.87;90.18
43701;BME280;58809;47.984;7.964;2023-02-03T06:03:12;98622.78;;;4.92;89.56
43701;BME280;58809;47.984;7.964;2023-02-03T06:06:14;98640.69;;;4.98;89.16
43701;BME280;58809;47.984;7.964;2023-02-03T06:09:15;98633.56;;;5.00;88.70
43701;BME280;58809;47.984;7.964;2023-02-03T06:12:17;98626.97;;;4.94;88.41
43701;BME280;58809;47.984;7.964;2023-02-03T06:15:18;98632.41;;;5.04;87.96
43701;BME280;58809;47.984;7.964;2023-02-03T06:18:20;98627.47;;;4.99;88.34
43701;BME280;58809;47.984;7.964;2023-02-03T06:21:22;98627.38;;;5.01;88.42
43701;BME280;58809;47.984;7.964;2023-02-03T06:24:23;98630.00;;;5.01;88.68
43701;BME280;58809;47.984;7.964;2023-02-03T06:27:25;98637.13;;;4.99;88.76
43701;BME280;58809;47.984;7.964;2023-02-03T06:30:27;98642.16;;;5.02;87.91
43701;BME280;58809;47.984;7.964;2023-02-03T06:33:30;98661.25;;;5.04;88.27
43701;BME280;58809;47.984;7.964;2023-02-03T06:36:32;98668.88;;;5.07;87.73
43701;BME280;58809;47.984;7.964;2023-02-03T06:39:33;98668.69;;;5.10;87.27
43701;BME280;58809;47.984;7.964;2023-02-03T06:42:35;98680.34;;;5.06;87.49
43701;BME280;58809;47.984;7.964;2023-02-03T06:45:36;98702.16;;;5.07;87.52
43701;BME280;58809;47.984;7.964;2023-02-03T06:48:38;98712.03;;;5.03;88.00
43701;BME280;58809;47.984;7.964;2023-02-03T06:51:39;98704.28;;;5.01;88.04
43701;BME280;58809;47.984;7.964;2023-02-03T06:54:41;98699.88;;;5.02;88.68
43701;BME280;58809;47.984;7.964;2023-02-03T06:57:44;98690.22;;;5.03;88.61
43701;BME280;58809;47.984;7.964;2023-02-03T07:00:45;98699.66;;;5.05;89.17
43701;BME280;58809;47.984;7.964;2023-02-03T07:03:47;98710.38;;;5.02;89.25
43701;BME280;58809;47.984;7.964;2023-02-03T07:06:48;98697.28;;;5.02;89.92
43701;BME280;58809;47.984;7.964;2023-02-03T07:09:50;98690.34;;;5.01;90.28
43701;BME280;58809;47.984;7.964;2023-02-03T07:12:51;98666.63;;;5.03;90.34
43701;BME280;58809;47.984;7.964;2023-02-03T07:15:53;98661.25;;;5.04;89.93
43701;BME280;58809;47.984;7.964;2023-02-03T07:18:54;98670.06;;;5.03;90.24
43701;BME280;58809;47.984;7.964;2023-02-03T07:21:56;98670.50;;;4.97;90.30
43701;BME280;58809;47.984;7.964;2023-02-03T07:24:57;98673.25;;;4.95;90.51
43701;BME280;58809;47.984;7.964;2023-02-03T07:28:00;98654.97;;;4.94;90.28
43701;BME280;58809;47.984;7.964;2023-02-03T07:31:02;98641.88;;;4.94;90.04
43701;BME280;58809;47.984;7.964;2023-02-03T07:34:05;98630.81;;;5.01;89.50
43701;BME280;58809;47.984;7.964;2023-02-03T07:37:06;98633.56;;;5.00;90.19
43701;BME280;58809;47.984;7.964;2023-02-03T07:40:10;98626.81;;;5.09;89.36
43701;BME280;58809;47.984;7.964;2023-02-03T07:43:12;98621.75;;;5.18;87.94
43701;BME280;58809;47.984;7.964;2023-02-03T07:46:13;98627.97;;;5.29;87.14
43701;BME280;58809;47.984;7.964;2023-02-03T07:49:15;98638.72;;;5.26;85.57
43701;BME280;58809;47.984;7.964;2023-02-03T07:52:17;98668.69;;;5.34;85.55
43701;BME280;58809;47.984;7.964;2023-02-03T07:55:18;98686.13;;;5.35;84.64
43701;BME280;58809;47.984;7.964;2023-02-03T07:58:20;98695.78;;;5.35;84.31
43701;BME280;58809;47.984;7.964;2023-02-03T08:01:21;98675.00;;;5.32;84.69
43701;BME280;58809;47.984;7.964;2023-02-03T08:04:22;98660.69;;;5.36;84.85
43701;BME280;58809;47.984;7.964;2023-02-03T08:07:24;98650.50;;;5.44;84.43
43701;BME280;58809;47.984;7.964;2023-02-03T08:10:26;98650.75;;;5.52;84.32
43701;BME280;58809;47.984;7.964;2023-02-03T08:13:28;98654.50;;;5.61;83.53
43701;BME280;58809;47.984;7.964;2023-02-03T08:16:29;98652.47;;;5.65;82.52
43701;BME280;58809;47.984;7.964;2023-02-03T08:19:31;98652.97;;;5.70;82.32
43701;BME280;58809;47.984;7.964;2023-02-03T08:22:33;98636.97;;;5.73;81.29
43701;BME280;58809;47.984;7.964;2023-02-03T08:25:34;98627.06;;;5.76;81.23
43701;BME280;58809;47.984;7.964;2023-02-03T08:28:36;98628.75;;;5.77;81.10
43701;BME280;58809;47.984;7.964;2023-02-03T08:31:37;98652.28;;;5.79;80.49
43701;BME280;58809;47.984;7.964;2023-02-03T08:34:39;98644.16;;;5.82;79.69
43701;BME280;58809;47.984;7.964;2023-02-03T08:37:41;98657.06;;;5.85;79.94
43701;BME280;58809;47.984;7.964;2023-02-03T08:40:43;98658.97;;;5.83;79.45
43701;BME280;58809;47.984;7.964;2023-02-03T08:43:44;98677.47;;;5.82;79.45
43701;BME280;58809;47.984;7.964;2023-02-03T08:46:50;98667.53;;;5.74;79.82
43701;BME280;58809;47.984;7.964;2023-02-03T08:49:52;98683.09;;;5.77;80.60
43701;BME280;58809;47.984;7.964;2023-02-03T08:52:54;98690.09;;;5.76;80.21
43701;BME280;58809;47.984;7.964;2023-02-03T08:55:55;98679.00;;;5.73;80.81
43701;BME280;58809;47.984;7.964;2023-02-03T08:58:57;98662.06;;;5.77;80.84
43701;BME280;58809;47.984;7.964;2023-02-03T09:01:58;98670.03;;;6.00;80.77
43701;BME280;58809;47.984;7.964;2023-02-03T09:05:00;98666.72;;;6.20;79.56
43701;BME280;58809;47.984;7.964;2023-02-03T09:08:02;98687.78;;;6.43;78.64
43701;BME280;58809;47.984;7.964;2023-02-03T09:11:08;98696.28;;;6.58;78.67
43701;BME280;58809;47.984;7.964;2023-02-03T09:14:10;98694.13;;;6.51;77.95
43701;BME280;58809;47.984;7.964;2023-02-03T09:17:11;98697.13;;;6.47;78.74
43701;BME280;58809;47.984;7.964;2023-02-03T09:20:13;98702.00;;;6.40;78.66
43701;BME280;58809;47.984;7.964;2023-02-03T09:23:15;98699.00;;;6.33;78.86
43701;BME280;58809;47.984;7.964;2023-02-03T09:26:16;98713.72;;;6.36;78.78
43701;BME280;58809;47.984;7.964;2023-02-03T09:29:19;98711.19;;;6.34;78.92
43701;BME280;58809;47.984;7.964;2023-02-03T09:32:20;98716.47;;;6.34;77.77
43701;BME280;58809;47.984;7.964;2023-02-03T09:35:21;98710.00;;;6.27;77.50
43701;BME280;58809;47.984;7.964;2023-02-03T09:38:24;98715.63;;;6.34;77.42
43701;BME280;58809;47.984;7.964;2023-02-03T09:48:17;98738.22;;;6.59;77.31
43701;BME280;58809;47.984;7.964;2023-02-03T09:51:27;98723.75;;;6.42;77.84
43701;BME280;58809;47.984;7.964;2023-02-03T09:54:51;98744.66;;;6.32;79.39
43701;BME280;58809;47.984;7.964;2023-02-03T09:58:02;98740.13;;;6.34;80.61
43701;BME280;58809;47.984;7.964;2023-02-03T10:01:07;98737.34;;;6.25;82.08
43701;BME280;58809;47.984;7.964;2023-02-03T10:04:31;98727.47;;;6.40;82.38
43701;BME280;58809;47.984;7.964;2023-02-03T10:10:57;98734.31;;;6.99;80.02
43701;BME280;58809;47.984;7.964;2023-02-03T10:17:40;98724.13;;;7.17;79.07
43701;BME280;58809;47.984;7.964;2023-02-03T10:20:50;98734.16;;;7.23;78.93
43701;BME280;58809;47.984;7.964;2023-02-03T10:23:54;98734.88;;;7.25;78.69
43701;BME280;58809;47.984;7.964;2023-02-03T10:26:58;98731.75;;;7.31;78.14
43701;BME280;58809;47.984;7.964;2023-02-03T10:30:19;98733.88;;;7.48;76.66
43701;BME280;58809;47.984;7.964;2023-02-03T10:33:25;98738.50;;;7.67;75.94
43701;BME280;58809;47.984;7.964;2023-02-03T10:36:35;98720.94;;;7.78;75.75
43701;BME280;58809;47.984;7.964;2023-02-03T10:39:46;98722.41;;;7.70;74.30
43701;BME280;58809;47.984;7.964;2023-02-03T10:42:48;98734.44;;;7.52;75.72
43701;BME280;58809;47.984;7.964;2023-02-03T10:46:08;98730.06;;;7.30;76.30
43701;BME280;58809;47.984;7.964;2023-02-03T10:49:11;98711.03;;;7.38;76.47
43701;BME280;58809;47.984;7.964;2023-02-03T10:52:23;98711.13;;;7.36;76.38
43701;BME280;58809;47.984;7.964;2023-02-03T10:58:28;98695.34;;;7.47;76.38
43701;BME280;58809;47.984;7.964;2023-02-03T11:01:42;98679.38;;;7.60;75.77
43701;BME280;58809;47.984;7.964;2023-02-03T11:04:45;98668.38;;;7.76;74.89
43701;BME280;58809;47.984;7.964;2023-02-03T11:07:47;98675.91;;;7.81;73.91
43701;BME280;58809;47.984;7.964;2023-02-03T11:10:49;98688.97;;;7.82;74.25
43701;BME280;58809;47.984;7.964;2023-02-03T11:17:14;98709.41;;;7.90;73.00
43701;BME280;58809;47.984;7.964;2023-02-03T11:20:16;98700.56;;;7.80;73.24
43701;BME280;58809;47.984;7.964;2023-02-03T11:23:19;98699.34;;;7.84;72.77
43701;BME280;58809;47.984;7.964;2023-02-03T11:26:28;98681.88;;;7.83;72.00
43701;BME280;58809;47.984;7.964;2023-02-03T11:29:53;98674.16;;;7.70;72.11
43701;BME280;58809;47.984;7.964;2023-02-03T11:33:17;98675.97;;;7.90;71.60
43701;BME280;58809;47.984;7.964;2023-02-03T11:36:19;98652.38;;;7.89;71.38
43701;BME280;58809;47.984;7.964;2023-02-03T11:39:29;98651.31;;;7.92;71.14
43701;BME280;58809;47.984;7.964;2023-02-03T11:42:38;98670.44;;;8.15;70.16
43701;BME280;58809;47.984;7.964;2023-02-03T11:45:44;98676.75;;;8.23;69.84
43701;BME280;58809;47.984;7.964;2023-02-03T11:49:11;98682.16;;;8.43;69.84
43701;BME280;58809;47.984;7.964;2023-02-03T12:05:37;98653.72;;;8.46;68.13
43701;BME280;58809;47.984;7.964;2023-02-03T12:08:53;98651.09;;;8.46;67.97
43701;BME280;58809;47.984;7.964;2023-02-03T12:18:32;98609.25;;;8.42;67.07
43701;BME280;58809;47.984;7.964;2023-02-03T12:24:52;98610.13;;;8.21;67.64
43701;BME280;58809;47.984;7.964;2023-02-03T12:28:08;98605.09;;;8.18;67.39
43701;BME280;58809;47.984;7.964;2023-02-03T12:35:03;98610.56;;;8.26;67.09
43701;BME280;58809;47.984;7.964;2023-02-03T12:38:12;98594.31;;;8.00;67.12
43701;BME280;58809;47.984;7.964;2023-02-03T12:41:23;98611.06;;;7.89;67.47
43701;BME280;58809;47.984;7.964;2023-02-03T12:44:40;98605.13;;;7.76;67.53
43701;BME280;58809;47.984;7.964;2023-02-03T12:50:55;98595.53;;;7.96;67.73
43701;BME280;58809;47.984;7.964;2023-02-03T13:00:47;98597.28;;;8.07;67.96
43701;BME280;58809;47.984;7.964;2023-02-03T13:04:23;98600.38;;;7.91;68.57
43701;BME280;58809;47.984;7.964;2023-02-03T13:07:38;98598.13;;;7.65;69.39
43701;BME280;58809;47.984;7.964;2023-02-03T13:10:47;98603.66;;;7.62;69.60
43701;BME280;58809;47.984;7.964;2023-02-03T13:14:03;98588.88;;;7.50;69.62
43701;BME280;58809;47.984;7.964;2023-02-03T13:17:14;98580.28;;;7.48;70.16
43701;BME280;58809;47.984;7.964;2023-02-03T13:20:26;98572.63;;;7.45;70.14
43701;BME280;58809;47.984;7.964;2023-02-03T13:23:29;98572.44;;;7.37;70.30
43701;BME280;58809;47.984;7.964;2023-02-03T13:33:39;98576.69;;;7.17;70.80
43701;BME280;58809;47.984;7.964;2023-02-03T13:37:19;98578.34;;;7.18;71.02
43701;BME280;58809;47.984;7.964;2023-02-03T13:43:40;98584.13;;;7.11;70.86
43701;BME280;58809;47.984;7.964;2023-02-03T13:46:48;98579.63;;;7.02;70.81
43701;BME280;58809;47.984;7.964;2023-02-03T13:49:55;98588.72;;;6.98;71.21
43701;BME280;58809;47.984;7.964;2023-02-03T13:53:18;98594.00;;;6.98;71.10
43701;BME280;58809;47.984;7.964;2023-02-03T13:56:25;98601.88;;;6.98;71.09
43701;BME280;58809;47.984;7.964;2023-02-03T13:59:43;98588.13;;;6.94;71.11
43701;BME280;58809;47.984;7.964;2023-02-03T14:02:52;98589.31;;;7.02;71.02
43701;BME280;58809;47.984;7.964;2023-02-03T14:05:58;98579.63;;;7.02;71.50
43701;BME280;58809;47.984;7.964;2023-02-03T14:09:18;98599.25;;;6.98;72.19
43701;BME280;58809;47.984;7.964;2023-02-03T14:12:31;98599.72;;;6.92;72.66
43701;BME280;58809;47.984;7.964;2023-02-03T14:15:33;98590.31;;;6.89;73.52
43701;BME280;58809;47.984;7.964;2023-02-03T14:18:43;98594.38;;;6.82;73.82
43701;BME280;58809;47.984;7.964;2023-02-03T14:24:57;98600.00;;;6.78;74.14
43701;BME280;58809;47.984;7.964;2023-02-03T14:28:08;98587.59;;;6.68;74.73
43701;BME280;58809;47.984;7.964;2023-02-03T14:31:17;98604.47;;;6.66;75.16
43701;BME280;58809;47.984;7.964;2023-02-03T14:34:29;98607.69;;;6.58;75.42
43701;BME280;58809;47.984;7.964;2023-02-03T14:37:31;98595.38;;;6.59;75.68
43701;BME280;58809;47.984;7.964;2023-02-03T14:50:45;98584.25;;;6.66;75.26
43701;BME280;58809;47.984;7.964;2023-02-03T15:03:25;98583.66;;;6.63;75.41
43701;BME280;58809;47.984;7.964;2023-02-03T15:06:38;98581.13;;;6.61;75.80
43701;BME280;58809;47.984;7.964;2023-02-03T15:09:43;98567.53;;;6.56;75.78
43701;BME280;58809;47.984;7.964;2023-02-03T15:12:50;98586.78;;;6.57;75.56
43701;BME280;58809;47.984;7.964;2023-02-03T15:16:02;98572.81;;;6.56;75.04
43701;BME280;58809;47.984;7.964;2023-02-03T15:19:15;98582.47;;;6.55;75.37
43701;BME280;58809;47.984;7.964;2023-02-03T15:22:27;98564.91;;;6.56;75.45
43701;BME280;58809;47.984;7.964;2023-02-03T15:25:30;98578.06;;;6.56;75.45
43701;BME280;58809;47.984;7.964;2023-02-03T15:28:33;98571.13;;;6.55;75.32
43701;BME280;58809;47.984;7.964;2023-02-03T15:31:39;98594.66;;;6.57;75.14
43701;BME280;58809;47.984;7.964;2023-02-03T15:34:47;98596.69;;;6.53;75.55
43701;BME280;58809;47.984;7.964;2023-02-03T15:37:55;98609.72;;;6.54;75.80
43701;BME280;58809;47.984;7.964;2023-02-03T15:41:02;98612.81;;;6.48;75.84
43701;BME280;58809;47.984;7.964;2023-02-03T15:44:13;98620.59;;;6.50;76.40
43701;BME280;58809;47.984;7.964;2023-02-03T15:47:25;98628.88;;;6.45;76.57
43701;BME280;58809;47.984;7.964;2023-02-03T15:53:44;98625.75;;;6.40;77.57
43701;BME280;58809;47.984;7.964;2023-02-03T15:56:59;98624.31;;;6.36;77.83
43701;BME280;58809;47.984;7.964;2023-02-03T16:03:37;98618.81;;;6.39;77.89
43701;BME280;58809;47.984;7.964;2023-02-03T16:06:39;98616.91;;;6.41;78.00
43701;BME280;58809;47.984;7.964;2023-02-03T16:09:45;98626.59;;;6.41;77.93
43701;BME280;58809;47.984;7.964;2023-02-03T16:12:47;98625.97;;;6.37;77.88
43701;BME280;58809;47.984;7.964;2023-02-03T16:16:04;98616.31;;;6.38;77.94
43701;BME280;58809;47.984;7.964;2023-02-03T16:19:16;98608.19;;;6.41;78.08
43701;BME280;58809;47.984;7.964;2023-02-03T16:25:38;98610.22;;;6.37;77.73
43701;BME280;58809;47.984;7.964;2023-02-03T16:28:40;98615.13;;;6.42;77.84
43701;BME280;58809;47.984;7.964;2023-02-03T16:32:00;98603.19;;;6.38;78.03
43701;BME280;58809;47.984;7.964;2023-02-03T16:35:20;98616.91;;;6.41;78.14
43701;BME280;58809;47.984;7.964;2023-02-03T16:38:47;98606.41;;;6.41;77.90
43701;BME280;58809;47.984;7.964;2023-02-03T16:42:15;98609.03;;;6.41;77.53
43701;BME280;58809;47.984;7.964;2023-02-03T16:45:35;98598.38;;;6.43;77.22
43701;BME280;58809;47.984;7.964;2023-02-03T16:48:55;98610.81;;;6.41;77.02
43701;BME280;58809;47.984;7.964;2023-02-03T16:52:15;98612.00;;;6.36;77.41
43701;BME280;58809;47.984;7.964;2023-02-03T16:55:17;98610.22;;;6.37;77.05
43701;BME280;58809;47.984;7.964;2023-02-03T16:58:19;98612.72;;;6.39;76.76
43701;BME280;58809;47.984;7.964;2023-02-03T17:01:20;98608.19;;;6.41;76.75
43701;BME280;58809;47.984;7.964;2023-02-03T17:04:22;98614.41;;;6.40;76.58
43701;BME280;58809;47.984;7.964;2023-02-03T17:07:23;98613.44;;;6.41;76.46
43701;BME280;58809;47.984;7.964;2023-02-03T17:10:25;98613.44;;;6.41;76.73
43701;BME280;58809;47.984;7.964;2023-02-03T17:13:27;98604.59;;;6.42;76.62
43701;BME280;58809;47.984;7.964;2023-02-03T17:16:29;98615.00;;;6.43;76.67
43701;BME280;58809;47.984;7.964;2023-02-03T17:19:31;98619.56;;;6.41;76.92
43701;BME280;58809;47.984;7.964;2023-02-03T17:22:33;98620.50;;;6.40;77.06
43701;BME280;58809;47.984;7.964;2023-02-03T17:25:36;98625.38;;;6.33;77.25
43701;BME280;58809;47.984;7.964;2023-02-03T17:28:38;98632.81;;;6.28;78.00
43701;BME280;58809;47.984;7.964;2023-02-03T17:31:40;98631.97;;;6.28;78.33
43701;BME280;58809;47.984;7.964;2023-02-03T17:34:42;98648.22;;;6.22;79.49
43701;BME280;58809;47.984;7.964;2023-02-03T17:37:44;98641.53;;;6.18;80.20
43701;BME280;58809;47.984;7.964;2023-02-03T17:40:46;98651.66;;;6.11;81.34
43701;BME280;58809;47.984;7.964;2023-02-03T17:44:05;98654.66;;;6.06;83.29
43701;BME280;58809;47.984;7.964;2023-02-03T17:47:24;98648.41;;;5.96;84.82
43701;BME280;58809;47.984;7.964;2023-02-03T17:50:44;98652.06;;;5.93;87.10
43701;BME280;58809;47.984;7.964;2023-02-03T17:58:45;98649.78;;;5.77;89.46
43701;BME280;58809;47.984;7.964;2023-02-03T18:01:46;98641.16;;;5.75;90.90
43701;BME280;58809;47.984;7.964;2023-02-03T18:04:48;98635.53;;;5.69;92.70
43701;BME280;58809;47.984;7.964;2023-02-03T18:07:49;98637.66;;;5.64;93.10
43701;BME280;58809;47.984;7.964;2023-02-03T18:10:51;98627.88;;;5.66;93.66
43701;BME280;58809;47.984;7.964;2023-02-03T18:13:52;98632.78;;;5.70;93.56
43701;BME280;58809;47.984;7.964;2023-02-03T18:16:54;98635.53;;;5.69;93.52
43701;BME280;58809;47.984;7.964;2023-02-03T18:19:55;98641.38;;;5.72;93.85
43701;BME280;58809;47.984;7.964;2023-02-03T18:22:59;98640.09;;;5.78;93.65
43701;BME280;58809;47.984;7.964;2023-02-03T18:26:00;98651.28;;;5.69;93.09
43701;BME280;58809;47.984;7.964;2023-02-03T18:29:04;98643.09;;;5.73;92.85
43701;BME280;58809;47.984;7.964;2023-02-03T18:32:05;98657.97;;;5.73;92.92
43701;BME280;58809;47.984;7.964;2023-02-03T18:35:07;98662.16;;;5.64;93.52
43701;BME280;58809;47.984;7.964;2023-02-03T18:38:13;98649.84;;;5.65;94.77